createdAt,value
2022-10-02T00:01:51.108Z,98552.11
2022-10-02T00:07:02.632Z,98552.64
2022-10-02T00:12:13.083Z,98557.47
2022-10-02T00:17:24.309Z,98562.04
2022-10-02T00:22:40.957Z,98562.23
2022-10-02T00:28:04.074Z,98567.66
2022-10-02T00:33:19.544Z,98570.03
2022-10-02T00:38:46.087Z,98572.02
2022-10-02T00:44:10.893Z,98573.20
2022-10-02T00:49:34.579Z,98580.58
2022-10-02T00:55:14.350Z,98590.27
2022-10-02T01:00:23.292Z,98591.27
2022-10-02T01:05:31.849Z,98590.34
2022-10-02T01:10:39.452Z,98603.08
2022-10-02T01:15:53.278Z,98608.48
2022-10-02T01:21:06.110Z,98606.08
2022-10-02T01:26:15.490Z,98607.90
2022-10-02T01:31:21.330Z,98611.85
2022-10-02T01:36:29.059Z,98614.20
2022-10-02T01:41:41.380Z,98620.66
2022-10-02T01:47:00.044Z,98633.06
2022-10-02T01:52:21.389Z,98639.55
2022-10-02T01:57:45.565Z,98641.14
2022-10-02T02:02:58.709Z,98646.58
2022-10-02T02:08:16.549Z,98648.88
2022-10-02T02:13:29.686Z,98651.61
2022-10-02T02:18:42.112Z,98654.31
2022-10-02T02:23:50.467Z,98655.48
2022-10-02T02:29:02.421Z,98658.25
2022-10-02T02:34:13.445Z,98659.60
2022-10-02T02:39:24.749Z,98666.73
2022-10-02T02:44:36.219Z,98664.10
2022-10-02T02:49:51.748Z,98663.83
2022-10-02T02:55:05.816Z,98668.29
2022-10-02T03:00:17.025Z,98673.59
2022-10-02T03:05:26.174Z,98678.27
2022-10-02T03:10:47.399Z,98678.36
2022-10-02T03:16:11.941Z,98687.14
2022-10-02T03:21:25.160Z,98685.69
2022-10-02T03:26:41.556Z,98684.48
2022-10-02T03:31:50.391Z,98686.65
2022-10-02T03:36:57.554Z,98686.07
2022-10-02T03:42:04.540Z,98695.06
2022-10-02T03:47:10.383Z,98704.08
2022-10-02T03:52:20.329Z,98715.91
2022-10-02T03:57:28.360Z,98720.43
2022-10-02T04:02:41.095Z,98717.33
2022-10-02T04:07:52.881Z,98721.88
2022-10-02T04:13:09.262Z,98732.35
2022-10-02T04:18:22.789Z,98739.21
2022-10-02T04:23:34.784Z,98744.48
2022-10-02T04:28:45.667Z,98748.52
2022-10-02T04:33:52.665Z,98755.28
2022-10-02T04:39:44.587Z,98765.16
2022-10-02T04:45:07.348Z,98770.71
2022-10-02T04:50:48.793Z,98777.11
2022-10-02T04:56:21.167Z,98782.15
2022-10-02T05:01:41.549Z,98799.70
2022-10-02T05:07:05.297Z,98806.10
2022-10-02T05:12:32.016Z,98807.19
2022-10-02T05:17:56.959Z,98809.11
2022-10-02T05:23:27.463Z,98814.23
2022-10-02T05:28:51.219Z,98823.88
2022-10-02T05:34:18.651Z,98825.81
2022-10-02T05:39:28.509Z,98834.72
2022-10-02T05:44:40.343Z,98838.55
2022-10-02T05:49:53.054Z,98847.69
2022-10-02T05:55:06.105Z,98851.66
2022-10-02T06:00:25.970Z,98855.66
2022-10-02T06:05:47.903Z,98864.99
2022-10-02T06:11:00.244Z,98873.45
2022-10-02T06:16:15.835Z,98879.90
2022-10-02T06:21:32.980Z,98880.67
2022-10-02T06:26:47.279Z,98890.48
2022-10-02T06:32:04.886Z,98892.55
2022-10-02T06:37:41.605Z,98901.87
2022-10-02T06:42:59.175Z,98909.68
2022-10-02T06:48:19.608Z,98915.53
2022-10-02T06:53:48.714Z,98915.27
2022-10-02T06:59:06.358Z,98915.69
2022-10-02T07:04:42.432Z,98921.78
2022-10-02T07:10:16.434Z,98929.91
2022-10-02T07:15:58.109Z,98938.66
2022-10-02T07:21:15.680Z,98942.25
2022-10-02T07:26:36.902Z,98945.83
2022-10-02T07:31:53.605Z,98950.44
2022-10-02T07:37:15.548Z,98954.91
2022-10-02T07:42:41.888Z,98955.73
2022-10-02T07:48:20.754Z,98944.58
2022-10-02T07:53:39.291Z,98947.36
2022-10-02T07:58:52.379Z,98941.80
2022-10-02T08:04:03.740Z,98942.78
2022-10-02T08:09:17.375Z,98949.19
2022-10-02T08:14:29.286Z,98946.21
2022-10-02T08:19:42.338Z,98946.16
2022-10-02T08:24:55.214Z,98946.38
2022-10-02T08:30:06.737Z,98952.04
2022-10-02T08:35:16.694Z,98945.77
2022-10-02T08:41:04.596Z,98941.11
2022-10-02T08:46:32.954Z,98942.09
2022-10-02T08:52:15.048Z,98938.23
2022-10-02T08:57:48.197Z,98928.48
2022-10-02T09:03:46.120Z,98933.52
2022-10-02T09:09:20.579Z,98931.29
2022-10-02T09:14:47.781Z,98932.59
2022-10-02T09:20:05.339Z,98931.59
2022-10-02T09:25:34.545Z,98930.64
2022-10-02T09:31:15.040Z,98929.27
2022-10-02T09:36:51.249Z,98926.95
2022-10-02T09:42:32.665Z,98923.18
2022-10-02T09:48:18.358Z,98927.42
2022-10-02T09:53:51.656Z,98917.48
2022-10-02T09:59:39.951Z,98909.13
2022-10-02T10:05:14.642Z,98899.23
2022-10-02T10:10:49.774Z,98894.50
2022-10-02T10:16:35.386Z,98900.39
2022-10-02T10:22:31.873Z,98894.11
2022-10-02T10:28:06.821Z,98891.00
2022-10-02T10:33:44.404Z,98890.68
2022-10-02T10:39:02.768Z,98894.76
2022-10-02T10:44:37.103Z,98890.73
2022-10-02T10:50:06.806Z,98887.02
2022-10-02T10:55:22.410Z,98886.86
2022-10-02T11:00:39.207Z,98889.48
2022-10-02T11:06:27.196Z,98883.88
2022-10-02T11:11:41.338Z,98879.52
2022-10-02T11:17:26.288Z,98874.81
2022-10-02T11:23:09.923Z,98869.41
2022-10-02T11:28:51.511Z,98871.29
2022-10-02T11:34:35.523Z,98877.73
2022-10-02T11:40:35.360Z,98873.34
2022-10-02T11:46:01.376Z,98866.12
2022-10-02T11:51:22.624Z,98860.00
2022-10-02T11:57:00.358Z,98855.73
2022-10-02T12:02:16.519Z,98846.20
2022-10-02T12:07:40.725Z,98838.80
2022-10-02T12:12:57.444Z,98841.96
2022-10-02T12:18:25.832Z,98842.00
2022-10-02T12:24:04.978Z,98866.04
2022-10-02T12:29:19.758Z,98852.72
2022-10-02T12:34:41.812Z,98844.68
2022-10-02T12:39:58.955Z,98832.30
2022-10-02T12:45:33.687Z,98824.07
2022-10-02T12:51:22.133Z,98806.05
2022-10-02T12:57:01.948Z,98795.90
2022-10-02T13:03:00.727Z,98795.20
2022-10-02T13:08:23.488Z,98795.73
2022-10-02T13:13:53.519Z,98784.36
2022-10-02T13:19:16.379Z,98776.48
2022-10-02T13:24:38.845Z,98771.30
2022-10-02T13:30:02.554Z,98763.42
2022-10-02T13:35:25.064Z,98766.02
2022-10-02T13:40:40.821Z,98762.61
2022-10-02T13:45:53.119Z,98758.14
2022-10-02T13:51:08.251Z,98758.46
2022-10-02T13:56:29.289Z,98749.26
2022-10-02T14:01:50.895Z,98754.11
2022-10-02T14:07:11.224Z,98747.95
2022-10-02T14:12:30.409Z,98744.31
2022-10-02T14:17:51.533Z,98751.63
2022-10-02T14:23:13.791Z,98766.52
2022-10-02T14:28:36.952Z,98797.23
2022-10-02T14:34:07.995Z,98777.36
2022-10-02T14:39:30.860Z,98757.39
2022-10-02T14:45:06.148Z,98749.43
2022-10-02T14:50:35.509Z,98719.27
2022-10-02T14:56:10.257Z,98726.55
2022-10-02T15:01:24.444Z,98731.33
2022-10-02T15:06:47.508Z,98726.25
2022-10-02T15:12:08.507Z,98721.54
2022-10-02T15:17:42.617Z,98722.60
2022-10-02T15:22:59.249Z,98716.52
2022-10-02T15:28:35.342Z,98725.87
2022-10-02T15:33:48.615Z,98722.58
2022-10-02T15:39:13.744Z,98720.60
2022-10-02T15:44:55.100Z,98728.36
2022-10-02T15:50:15.266Z,98734.25
2022-10-02T15:55:32.800Z,98729.67
2022-10-02T16:01:01.971Z,98736.45
2022-10-02T16:06:22.194Z,98733.67
2022-10-02T16:12:03.007Z,98735.46
2022-10-02T16:17:33.014Z,98735.15
2022-10-02T16:22:52.370Z,98734.79
2022-10-02T16:28:14.554Z,98761.27
2022-10-02T16:33:28.061Z,98782.50
2022-10-02T16:38:49.650Z,98761.55
2022-10-02T16:44:07.744Z,98735.23
2022-10-02T16:49:25.828Z,98746.81
2022-10-02T16:54:45.097Z,98751.50
2022-10-02T17:00:01.832Z,98753.04
2022-10-02T17:05:17.691Z,98748.11
2022-10-02T17:10:36.583Z,98742.43
2022-10-02T17:15:50.020Z,98738.34
2022-10-02T17:21:04.089Z,98742.72
2022-10-02T17:26:21.940Z,98741.13
2022-10-02T17:31:37.576Z,98737.77
2022-10-02T17:36:58.686Z,98726.49
2022-10-02T17:42:17.083Z,98719.18
2022-10-02T17:47:49.895Z,98715.13
2022-10-02T17:53:29.306Z,98710.34
2022-10-02T17:58:47.513Z,98716.02
2022-10-02T18:04:09.417Z,98701.67
2022-10-02T18:09:44.108Z,98694.59
2022-10-02T18:15:17.420Z,98701.45
2022-10-02T18:20:35.481Z,98698.84
2022-10-02T18:25:59.358Z,98688.73
2022-10-02T18:31:38.549Z,98686.81
2022-10-02T18:37:10.064Z,98693.38
2022-10-02T18:42:49.146Z,98694.98
2022-10-02T18:48:08.388Z,98689.13
2022-10-02T18:53:35.781Z,98688.49
2022-10-02T18:59:08.155Z,98692.25
2022-10-02T19:04:37.076Z,98688.70
2022-10-02T19:09:44.380Z,98702.66
2022-10-02T19:14:56.220Z,98759.60
2022-10-02T19:20:24.002Z,98781.62
2022-10-02T19:25:31.975Z,98768.63
2022-10-02T19:30:42.383Z,98763.73
2022-10-02T19:35:55.213Z,98741.07
2022-10-02T19:41:09.055Z,98749.91
2022-10-02T19:46:29.427Z,98752.34
2022-10-02T19:51:45.644Z,98746.38
2022-10-02T19:56:58.508Z,98744.63
2022-10-02T20:02:17.012Z,98742.50
2022-10-02T20:07:27.683Z,98744.79
2022-10-02T20:12:39.851Z,98751.95
2022-10-02T20:17:47.597Z,98756.20
2022-10-02T20:23:02.105Z,98756.67
2022-10-02T20:28:21.263Z,98752.33
2022-10-02T20:33:34.646Z,98755.08
2022-10-02T20:38:48.477Z,98766.67
2022-10-02T20:44:04.620Z,98769.66
2022-10-02T20:49:41.453Z,98775.96
2022-10-02T20:55:00.108Z,98774.25
2022-10-02T21:00:17.897Z,98774.70
2022-10-02T21:05:58.835Z,98778.58
2022-10-02T21:11:21.723Z,98780.04
2022-10-02T21:17:04.849Z,98782.77
2022-10-02T21:22:48.993Z,98788.66
2022-10-02T21:28:31.795Z,98794.50
2022-10-02T21:33:47.600Z,98795.60
2022-10-02T21:39:33.108Z,98801.65
2022-10-02T21:45:24.856Z,98798.36
2022-10-02T21:51:13.535Z,98793.66
2022-10-02T21:56:52.496Z,98792.23
2022-10-02T22:02:25.810Z,98789.34
2022-10-02T22:07:38.559Z,98784.28
2022-10-02T22:12:58.947Z,98783.30
2022-10-02T22:18:16.204Z,98792.17
2022-10-02T22:23:29.646Z,98799.78
2022-10-02T22:28:45.662Z,98803.29
2022-10-02T22:34:08.409Z,98801.02
2022-10-02T22:39:22.000Z,98803.34
2022-10-02T22:44:37.045Z,98813.13
2022-10-02T22:49:47.996Z,98810.00
2022-10-02T22:55:02.096Z,98810.35
2022-10-02T23:00:17.866Z,98811.55
2022-10-02T23:05:34.480Z,98811.52
2022-10-02T23:10:47.156Z,98819.52
2022-10-02T23:15:59.961Z,98821.88
2022-10-02T23:21:23.063Z,98824.31
2022-10-02T23:26:37.001Z,98827.26
2022-10-02T23:31:54.038Z,98826.32
2022-10-02T23:37:05.952Z,98831.04
2022-10-02T23:42:16.942Z,98831.23
2022-10-02T23:47:35.766Z,98833.89
2022-10-02T23:53:00.504Z,98835.77
2022-10-02T23:58:31.662Z,98833.60
